Decoded Metar for KMAO (MARION in SC, USA) (IATA:MAO) | Meteo·Mobile Aviation Weather
aviador You're here:

KMAO Decoded Metar

MARION in SC, USA
Report Time2018-09-22 18:35:00
UTC Time2018-09-22 18:57:00
Flight Rules vfr VFR
WindCalm
Visibility9999 m
Phenomena:N/A
Clouds:Scattered 041 Hf
Scattered 047 Hf
Scattered 055 Hf
Expected CloudBase > 3,600 ft AGL from Temp-Dew spread
CeilingNone
Temp29°C (ISA +14)
Dew Point20°C (58% RH)
Heat Index30.7°C
QNH1018 hPa
Density Alt1,864 ft
Elevation92 ft
Report Wrong Elevation
Raw Report
METAR KMAO 221835Z AUTO 00000KT 10SM SCT041 SCT047 SCT055 29/20 A3007
RMK AO2=

Extra information for KMAO:More info

Metar Taf Metar & Taf Last 4 Metars F.Rules Stats Wind Profile Meteogram Temp Stats Airport Information Weather charts Add Link Nearby VenuesMetar ALERT Operation Metar Decoded Social comments

AIRNAV info for KMAO